createdAt,value
2023-04-16T00:01:30.349Z,18.97
2023-04-16T00:04:35.682Z,16.60
2023-04-16T00:07:39.510Z,15.48
2023-04-16T00:10:43.443Z,17.67
2023-04-16T00:13:47.008Z,14.60
2023-04-16T00:16:51.177Z,17.77
2023-04-16T00:19:56.176Z,19.63
2023-04-16T00:23:00.281Z,20.30
2023-04-16T00:26:03.690Z,18.90
2023-04-16T00:29:07.850Z,18.67
2023-04-16T00:32:11.828Z,22.23
2023-04-16T00:35:17.189Z,23.08
2023-04-16T00:38:20.932Z,23.85
2023-04-16T00:41:26.798Z,23.40
2023-04-16T00:44:30.681Z,23.13
2023-04-16T00:47:35.351Z,25.17
2023-04-16T00:50:40.326Z,18.65
2023-04-16T00:53:46.654Z,19.55
2023-04-16T00:56:51.165Z,24.23
2023-04-16T00:59:56.483Z,26.40
2023-04-16T01:03:01.357Z,20.20
2023-04-16T01:06:07.765Z,16.73
2023-04-16T01:09:11.771Z,17.15
2023-04-16T01:12:15.860Z,16.50
2023-04-16T01:15:19.499Z,16.35
2023-04-16T01:18:25.084Z,14.75
2023-04-16T01:21:30.025Z,12.45
2023-04-16T01:24:34.121Z,18.35
2023-04-16T01:27:37.606Z,18.65
2023-04-16T01:30:41.808Z,21.17
2023-04-16T01:34:11.502Z,26.47
2023-04-16T01:37:17.004Z,19.95
2023-04-16T01:40:21.285Z,23.23
2023-04-16T01:43:25.036Z,22.20
2023-04-16T01:46:32.117Z,23.75
2023-04-16T01:49:36.495Z,18.92
2023-04-16T01:52:41.465Z,19.67
2023-04-16T01:55:45.338Z,21.48
2023-04-16T01:58:48.957Z,14.40
2023-04-16T02:01:55.205Z,16.63
2023-04-16T02:04:59.290Z,14.20
2023-04-16T02:08:04.948Z,14.38
2023-04-16T02:11:08.526Z,16.95
2023-04-16T02:14:12.818Z,18.70
2023-04-16T02:17:17.418Z,14.60
2023-04-16T02:20:22.898Z,14.43
2023-04-16T02:23:34.053Z,16.10
2023-04-16T02:26:38.029Z,13.88
2023-04-16T02:29:47.030Z,19.98
2023-04-16T02:32:54.065Z,23.00
2023-04-16T02:35:57.935Z,26.33
2023-04-16T02:39:03.549Z,28.52
2023-04-16T02:42:07.092Z,28.30
2023-04-16T02:45:12.946Z,26.33
2023-04-16T02:48:18.071Z,23.83
2023-04-16T02:51:22.134Z,26.20
2023-04-16T02:54:27.166Z,27.95
2023-04-16T02:57:31.001Z,28.13
2023-04-16T03:00:34.502Z,26.83
2023-04-16T03:03:38.314Z,27.55
2023-04-16T03:06:41.943Z,28.13
2023-04-16T03:09:47.198Z,30.98
2023-04-16T03:12:50.931Z,28.45
2023-04-16T03:15:54.758Z,32.03
2023-04-16T03:18:58.458Z,26.65
2023-04-16T03:22:02.476Z,28.25
2023-04-16T03:25:08.763Z,30.92
2023-04-16T03:28:12.620Z,27.63
2023-04-16T03:31:16.530Z,27.73
2023-04-16T03:34:20.585Z,27.05
2023-04-16T03:37:24.500Z,25.90
2023-04-16T03:40:29.933Z,25.08
2023-04-16T03:43:34.215Z,25.00
2023-04-16T03:46:38.335Z,26.17
2023-04-16T03:49:41.834Z,23.33
2023-04-16T03:52:46.937Z,23.50
2023-04-16T03:55:53.763Z,17.17
2023-04-16T03:58:58.685Z,15.48
2023-04-16T04:02:02.574Z,17.38
2023-04-16T04:05:07.160Z,17.15
2023-04-16T04:08:11.088Z,18.60
2023-04-16T04:11:16.818Z,18.85
2023-04-16T04:14:21.210Z,18.75
2023-04-16T04:17:25.303Z,16.47
2023-04-16T04:20:28.800Z,18.95
2023-04-16T04:23:33.006Z,22.02
2023-04-16T04:26:37.859Z,17.90
2023-04-16T04:29:41.913Z,16.88
2023-04-16T04:32:45.484Z,19.55
2023-04-16T04:35:49.660Z,18.33
2023-04-16T04:38:53.615Z,17.30
2023-04-16T04:42:03.181Z,16.33
2023-04-16T04:45:08.327Z,18.55
2023-04-16T04:48:12.785Z,15.70
2023-04-16T04:51:16.406Z,15.43
2023-04-16T04:54:22.752Z,15.07
2023-04-16T04:57:27.763Z,15.05
2023-04-16T05:00:32.233Z,17.73
2023-04-16T05:03:36.073Z,18.35
2023-04-16T05:06:40.119Z,16.00
2023-04-16T05:09:43.755Z,15.67
2023-04-16T05:12:49.552Z,15.75
2023-04-16T05:15:53.022Z,17.77
2023-04-16T05:18:58.000Z,16.83
2023-04-16T05:22:02.244Z,17.20
2023-04-16T05:25:07.046Z,16.10
2023-04-16T05:28:12.262Z,18.67
2023-04-16T05:31:16.156Z,17.70
2023-04-16T05:34:19.717Z,20.85
2023-04-16T05:37:23.737Z,17.17
2023-04-16T05:40:27.155Z,19.37
2023-04-16T05:43:32.487Z,15.73
2023-04-16T05:46:36.030Z,17.85
2023-04-16T05:49:39.698Z,20.40
2023-04-16T05:52:43.230Z,22.35
2023-04-16T05:55:47.085Z,22.67
2023-04-16T05:58:52.077Z,26.02
2023-04-16T06:01:55.820Z,19.77
2023-04-16T06:04:59.228Z,19.63
2023-04-16T06:08:02.989Z,19.13
2023-04-16T06:11:06.771Z,19.50
2023-04-16T06:14:12.433Z,19.27
2023-04-16T06:17:15.803Z,17.85
2023-04-16T06:20:19.551Z,17.60
2023-04-16T06:23:22.962Z,17.80
2023-04-16T06:26:26.877Z,16.65
2023-04-16T06:29:40.346Z,18.20
2023-04-16T06:32:46.571Z,16.17
2023-04-16T06:35:50.309Z,17.15
2023-04-16T06:38:54.453Z,21.20
2023-04-16T06:41:58.353Z,19.30
2023-04-16T06:45:03.820Z,20.60
2023-04-16T06:48:08.231Z,17.27
2023-04-16T06:51:13.237Z,19.90
2023-04-16T06:54:16.893Z,19.85
2023-04-16T06:57:20.995Z,19.10
2023-04-16T07:00:26.065Z,19.73
2023-04-16T07:03:30.121Z,20.33
2023-04-16T07:06:33.742Z,21.23
2023-04-16T07:09:37.693Z,17.42
2023-04-16T07:12:41.286Z,24.17
2023-04-16T07:15:46.728Z,21.38
2023-04-16T07:18:50.536Z,21.15
2023-04-16T07:21:54.488Z,21.13
2023-04-16T07:24:58.206Z,20.13
2023-04-16T07:28:02.285Z,19.20
2023-04-16T07:31:07.678Z,21.98
2023-04-16T07:34:11.598Z,22.92
2023-04-16T07:37:15.341Z,23.63
2023-04-16T07:40:19.437Z,20.17
2023-04-16T07:43:22.939Z,20.27
2023-04-16T07:46:33.333Z,23.20
2023-04-16T07:49:46.829Z,18.70
2023-04-16T07:52:50.642Z,21.63
2023-04-16T07:55:54.019Z,19.65
2023-04-16T07:59:14.484Z,22.42
2023-04-16T08:02:23.177Z,22.33
2023-04-16T08:05:27.176Z,22.80
2023-04-16T08:08:30.792Z,20.48
2023-04-16T08:11:34.574Z,22.75
2023-04-16T08:14:37.928Z,21.47
2023-04-16T08:17:43.137Z,21.83
2023-04-16T08:20:46.876Z,19.48
2023-04-16T08:23:50.623Z,21.27
2023-04-16T08:26:54.107Z,23.65
2023-04-16T08:29:57.818Z,20.25
2023-04-16T08:33:03.018Z,21.08
2023-04-16T08:36:07.271Z,19.58
2023-04-16T08:39:11.031Z,22.38
2023-04-16T08:42:27.099Z,20.23
2023-04-16T08:45:32.130Z,18.57
2023-04-16T08:48:39.142Z,19.52
2023-04-16T08:51:51.155Z,22.00
2023-04-16T08:55:05.189Z,23.43
2023-04-16T08:58:15.000Z,27.52
2023-04-16T09:01:20.901Z,23.85
2023-04-16T09:04:29.426Z,23.77
2023-04-16T09:07:35.510Z,22.70
2023-04-16T09:10:38.966Z,22.40
2023-04-16T09:13:42.705Z,23.25
2023-04-16T09:16:47.899Z,24.13
2023-04-16T09:19:53.189Z,21.88
2023-04-16T09:22:57.048Z,22.73
2023-04-16T09:26:01.229Z,24.90
2023-04-16T09:29:04.878Z,23.38
2023-04-16T09:32:11.258Z,25.08
2023-04-16T09:35:17.064Z,21.98
2023-04-16T09:38:21.512Z,22.90
2023-04-16T09:41:28.567Z,23.70
2023-04-16T09:44:37.881Z,23.15
2023-04-16T09:47:43.249Z,28.43
2023-04-16T09:50:52.930Z,28.25
2023-04-16T09:53:58.546Z,30.58
2023-04-16T09:57:02.675Z,30.70
2023-04-16T10:00:09.322Z,31.67
2023-04-16T10:03:13.064Z,30.63
2023-04-16T10:06:21.728Z,29.70
2023-04-16T10:09:25.699Z,27.40
2023-04-16T10:12:32.648Z,32.60
2023-04-16T10:15:36.575Z,30.35
2023-04-16T10:18:42.577Z,30.93
2023-04-16T10:21:48.952Z,32.10
2023-04-16T10:24:54.230Z,34.65
2023-04-16T10:28:00.136Z,34.97
2023-04-16T10:31:06.777Z,34.05
2023-04-16T10:34:11.914Z,29.55
2023-04-16T10:37:18.966Z,31.55
2023-04-16T10:40:27.782Z,35.30
2023-04-16T10:43:32.667Z,32.17
2023-04-16T10:46:40.697Z,32.17
2023-04-16T10:49:44.982Z,33.37
2023-04-16T10:52:50.093Z,31.25
2023-04-16T10:56:15.786Z,29.48
2023-04-16T10:59:22.444Z,30.40
2023-04-16T11:02:30.399Z,29.00
2023-04-16T11:05:47.911Z,30.40
2023-04-16T11:08:55.409Z,27.17
2023-04-16T11:11:59.791Z,29.35
2023-04-16T11:15:06.849Z,30.55
2023-04-16T11:18:10.912Z,28.05
2023-04-16T11:21:14.668Z,26.17
2023-04-16T11:24:20.054Z,28.58
2023-04-16T11:27:24.077Z,21.65
2023-04-16T11:30:34.055Z,16.55
2023-04-16T11:33:38.943Z,18.08
2023-04-16T11:36:46.159Z,20.13
2023-04-16T11:39:52.879Z,19.73
2023-04-16T11:42:58.041Z,19.83
2023-04-16T11:46:12.892Z,18.95
2023-04-16T11:49:30.621Z,15.35
2023-04-16T11:52:36.367Z,15.82
2023-04-16T11:55:46.161Z,17.73
2023-04-16T11:59:09.076Z,15.93
2023-04-16T12:02:13.050Z,16.25
2023-04-16T12:05:32.222Z,14.70
2023-04-16T12:08:36.259Z,13.18
2023-04-16T12:11:41.787Z,11.93
2023-04-16T12:14:52.212Z,12.95
2023-04-16T12:18:09.571Z,14.25
2023-04-16T12:21:13.637Z,13.25
2023-04-16T12:24:20.949Z,14.80
2023-04-16T12:27:28.698Z,14.30
2023-04-16T12:30:32.195Z,14.98
2023-04-16T12:33:35.904Z,9.15
2023-04-16T12:36:39.447Z,8.27
2023-04-16T12:39:43.217Z,10.13
2023-04-16T12:42:48.210Z,10.60
2023-04-16T12:45:52.156Z,11.48
2023-04-16T12:48:56.775Z,9.23
2023-04-16T12:52:00.928Z,10.30
2023-04-16T12:55:04.716Z,10.32
2023-04-16T12:58:12.491Z,9.23
2023-04-16T13:01:16.392Z,9.27
2023-04-16T13:04:21.154Z,9.17
2023-04-16T13:07:26.924Z,9.90
2023-04-16T13:10:31.352Z,8.65
2023-04-16T13:13:36.516Z,8.93
2023-04-16T13:16:40.494Z,8.88
2023-04-16T13:19:44.025Z,9.00
2023-04-16T13:22:48.110Z,12.65
2023-04-16T13:25:51.735Z,9.82
2023-04-16T13:28:58.096Z,11.02
2023-04-16T13:32:03.636Z,12.95
2023-04-16T13:35:07.931Z,9.37
2023-04-16T13:38:12.283Z,8.65
2023-04-16T13:41:16.280Z,8.45
2023-04-16T13:44:21.443Z,8.88
2023-04-16T13:47:26.330Z,7.47
2023-04-16T13:50:29.867Z,6.83
2023-04-16T13:53:33.798Z,7.60
2023-04-16T13:56:37.367Z,8.75
2023-04-16T13:59:42.685Z,7.45
2023-04-16T14:02:48.665Z,6.93
2023-04-16T14:05:52.687Z,8.17
2023-04-16T14:08:56.054Z,6.70
2023-04-16T14:12:00.116Z,6.28
2023-04-16T14:15:06.765Z,6.68
2023-04-16T14:18:10.824Z,7.70
2023-04-16T14:21:14.799Z,5.63
2023-04-16T14:24:18.585Z,7.38
2023-04-16T14:27:22.181Z,6.72
2023-04-16T14:30:27.427Z,6.25
2023-04-16T14:33:31.053Z,6.43
2023-04-16T14:36:35.277Z,7.37
2023-04-16T14:39:39.339Z,6.25
2023-04-16T14:42:43.437Z,7.63
2023-04-16T14:45:48.248Z,5.18
2023-04-16T14:48:52.041Z,5.55
2023-04-16T14:51:56.607Z,8.47
2023-04-16T14:55:00.601Z,6.07
2023-04-16T14:58:04.065Z,6.13
2023-04-16T15:01:09.573Z,5.40
2023-04-16T15:04:13.500Z,7.07
2023-04-16T15:07:17.598Z,8.43
2023-04-16T15:10:21.176Z,4.73
2023-04-16T15:13:25.116Z,4.20
2023-04-16T15:16:30.139Z,4.63
2023-04-16T15:19:34.072Z,3.88
2023-04-16T15:22:38.086Z,4.83
2023-04-16T15:25:42.912Z,7.60
2023-04-16T15:28:46.300Z,3.90
2023-04-16T15:31:51.811Z,3.90
2023-04-16T15:34:55.284Z,3.60
2023-04-16T15:37:59.404Z,7.90
2023-04-16T15:41:02.804Z,3.40
2023-04-16T15:44:06.813Z,4.68
2023-04-16T15:47:11.607Z,3.78
2023-04-16T15:50:15.905Z,3.88
2023-04-16T15:53:19.390Z,4.23
2023-04-16T15:56:23.348Z,3.57
2023-04-16T15:59:27.020Z,3.00
2023-04-16T16:02:32.490Z,3.58
2023-04-16T16:05:36.244Z,3.72
2023-04-16T16:08:40.181Z,4.00
2023-04-16T16:11:43.537Z,3.17
2023-04-16T16:14:47.896Z,5.30
2023-04-16T16:17:53.482Z,2.88
2023-04-16T16:20:58.903Z,3.88
2023-04-16T16:24:02.410Z,2.97
2023-04-16T16:27:07.128Z,2.90
2023-04-16T16:30:12.060Z,3.17
2023-04-16T16:33:17.680Z,3.10
2023-04-16T16:36:21.107Z,3.92
2023-04-16T16:39:26.257Z,3.70
2023-04-16T16:42:29.654Z,4.43
2023-04-16T16:45:33.712Z,3.83
2023-04-16T16:48:38.480Z,4.60
2023-04-16T16:51:42.235Z,5.15
2023-04-16T16:54:45.707Z,5.13
2023-04-16T16:57:50.055Z,5.22
2023-04-16T17:00:53.422Z,4.85
2023-04-16T17:03:59.111Z,5.78
2023-04-16T17:07:02.582Z,6.03
2023-04-16T17:10:08.289Z,7.63
2023-04-16T17:13:13.639Z,6.45
2023-04-16T17:16:17.738Z,6.65
2023-04-16T17:19:22.536Z,10.43
2023-04-16T17:22:26.390Z,8.27
2023-04-16T17:25:29.932Z,7.20
2023-04-16T17:28:34.080Z,8.18
2023-04-16T17:31:37.780Z,8.48
2023-04-16T17:34:43.331Z,10.75
2023-04-16T17:37:46.714Z,9.13
2023-04-16T17:40:50.771Z,11.55
2023-04-16T17:43:54.174Z,12.80
2023-04-16T17:46:58.710Z,12.45
2023-04-16T17:50:03.872Z,9.83
2023-04-16T17:53:07.989Z,9.70
2023-04-16T17:56:11.655Z,12.63
2023-04-16T17:59:15.690Z,13.52
2023-04-16T18:02:19.282Z,10.57
2023-04-16T18:05:25.123Z,10.85
2023-04-16T18:08:28.790Z,11.15
2023-04-16T18:11:32.581Z,12.80
2023-04-16T18:14:37.036Z,14.70
2023-04-16T18:17:41.086Z,14.38
2023-04-16T18:20:45.955Z,23.13
2023-04-16T18:23:49.957Z,25.00
2023-04-16T18:26:55.109Z,22.92
2023-04-16T18:29:59.507Z,21.17
2023-04-16T18:36:11.738Z,20.92
2023-04-16T18:39:15.303Z,15.52
2023-04-16T18:42:19.380Z,16.80
2023-04-16T18:45:22.746Z,15.15
2023-04-16T18:48:26.475Z,14.45
2023-04-16T18:51:31.658Z,10.70
2023-04-16T18:54:36.598Z,12.87
2023-04-16T18:57:40.185Z,10.60
2023-04-16T19:00:44.265Z,12.45
2023-04-16T19:03:47.824Z,9.70
2023-04-16T19:06:53.351Z,11.35
2023-04-16T19:09:56.876Z,9.77
2023-04-16T19:13:00.932Z,8.95
2023-04-16T19:16:06.062Z,12.27
2023-04-16T19:19:10.462Z,9.93
2023-04-16T19:22:15.424Z,8.98
2023-04-16T19:25:19.460Z,9.43
2023-04-16T19:28:22.924Z,9.98
2023-04-16T19:31:27.768Z,10.30
2023-04-16T19:34:31.305Z,11.27
2023-04-16T19:37:36.806Z,11.07
2023-04-16T19:40:40.338Z,9.98
2023-04-16T19:43:44.149Z,11.55
2023-04-16T19:46:47.507Z,12.35
2023-04-16T19:49:51.809Z,13.40
2023-04-16T19:52:56.623Z,14.18
2023-04-16T19:56:00.540Z,10.40
2023-04-16T19:59:04.114Z,11.75
2023-04-16T20:02:08.463Z,11.98
2023-04-16T20:05:11.897Z,10.00
2023-04-16T20:08:17.314Z,11.70
2023-04-16T20:11:20.817Z,10.07
2023-04-16T20:14:24.756Z,12.45
2023-04-16T20:17:28.170Z,11.10
2023-04-16T20:20:31.965Z,13.35
2023-04-16T20:23:36.758Z,15.07
2023-04-16T20:26:40.704Z,10.67
2023-04-16T20:29:44.055Z,12.15
2023-04-16T20:32:48.062Z,13.30
2023-04-16T20:35:52.248Z,12.67
2023-04-16T20:38:59.402Z,12.25
2023-04-16T20:42:04.222Z,11.63
2023-04-16T20:45:11.116Z,9.73
2023-04-16T20:48:14.624Z,10.10
2023-04-16T20:51:18.613Z,14.75
2023-04-16T20:54:24.623Z,10.13
2023-04-16T20:57:29.694Z,10.23
2023-04-16T21:00:33.312Z,8.43
2023-04-16T21:03:37.366Z,10.07
2023-04-16T21:06:42.939Z,8.63
2023-04-16T21:09:48.247Z,9.52
2023-04-16T21:12:51.651Z,12.55
2023-04-16T21:15:55.595Z,14.05
2023-04-16T21:18:59.748Z,18.80
2023-04-16T21:22:03.725Z,15.90
2023-04-16T21:25:10.553Z,11.93
2023-04-16T21:28:14.736Z,13.23
2023-04-16T21:31:18.823Z,13.02
2023-04-16T21:34:22.954Z,14.95
2023-04-16T21:37:26.323Z,14.70
2023-04-16T21:40:31.652Z,17.25
2023-04-16T21:43:35.085Z,19.67
2023-04-16T21:46:38.881Z,19.15
2023-04-16T21:49:42.827Z,18.05
2023-04-16T21:52:47.170Z,15.93
2023-04-16T21:55:52.054Z,14.73
2023-04-16T21:58:55.811Z,17.97
2023-04-16T22:01:59.245Z,18.60
2023-04-16T22:05:03.240Z,15.40
2023-04-16T22:08:23.265Z,14.53
2023-04-16T22:11:29.543Z,18.52
2023-04-16T22:14:32.958Z,16.85
2023-04-16T22:17:36.938Z,16.77
2023-04-16T22:20:40.411Z,17.02
2023-04-16T22:23:46.719Z,16.77
2023-04-16T22:26:51.525Z,16.10
2023-04-16T22:29:55.350Z,17.20
2023-04-16T22:32:58.901Z,14.13
2023-04-16T22:36:02.555Z,20.35
2023-04-16T22:39:08.569Z,15.47
2023-04-16T22:42:13.855Z,16.40
2023-04-16T22:45:17.441Z,15.48
2023-04-16T22:48:21.306Z,16.88
2023-04-16T22:51:25.351Z,14.57
2023-04-16T22:54:29.979Z,16.80
2023-04-16T22:57:34.748Z,16.33
2023-04-16T23:00:38.439Z,18.00
2023-04-16T23:03:41.911Z,16.95
2023-04-16T23:06:46.427Z,18.67
2023-04-16T23:09:49.849Z,14.37
2023-04-16T23:12:55.366Z,15.68
2023-04-16T23:15:58.946Z,17.00
2023-04-16T23:19:02.783Z,16.10
2023-04-16T23:22:06.163Z,17.33
2023-04-16T23:25:11.185Z,15.10
2023-04-16T23:28:16.005Z,18.20
2023-04-16T23:31:20.319Z,18.20
2023-04-16T23:34:23.793Z,18.15
2023-04-16T23:37:28.019Z,15.80
2023-04-16T23:40:31.638Z,15.63
2023-04-16T23:43:40.012Z,18.83
2023-04-16T23:46:43.532Z,17.95
2023-04-16T23:49:47.380Z,21.45
2023-04-16T23:52:50.964Z,16.30
2023-04-16T23:55:54.721Z,17.35
2023-04-16T23:58:59.570Z,16.95
